Terminal Aerodrome Forecast
Issued by NWS

Home | Current Version | Previous Version | Text Only | Print | Product List | Glossary On
Versions: 1 2 3 4 5 6 7 8 9 10 11 12 13 14 15 16 17 18 19 20 21 22 23 24 25 26 27 28 29 30 31
000
FTUS44 KLIX 222100 AAA
TAFHUM
TAF AMD
KHUM 222116Z 2221/2318 20013KT P6SM VCSH BKN015
     FM230300 23009KT P6SM BKN008
     FM230600 24008KT 2SM BR BKN008
     FM231200 18004KT P6SM VCTS OVC020CB
     FM231600 19014KT 3SM +SHRA VCTS OVC025CB=

USA.gov is the U.S. government's official web portal to all federal, state and local government web resources and services.